Time;durP1;ratioP1;P1;durP2;ratioP2;P2;SDS_P1;SDS_P2;PMS_P1;PMS_P2;Temp;Humidity;BMP_temperature;BMP_pressure;BME280_temperature;BME280_humidity;BME280_pressure;Samples;Min_cycle;Max_cycle;Signal;HPM_P1;HPM_P2
2021/10/23 00:00:41;;;;;;;12.43;9.13;;;9.40;99.90;;;;;;5045156;28;20194;-41
2021/10/23 00:03:07;;;;;;;11.90;8.60;;;9.50;99.90;;;;;;5030588;28;20445;-41
2021/10/23 00:05:33;;;;;;;11.33;8.70;;;9.60;99.90;;;;;;5027252;28;20297;-41
2021/10/23 00:07:58;;;;;;;15.73;10.57;;;9.90;99.90;;;;;;5026133;28;20200;-41
2021/10/23 00:10:24;;;;;;;11.20;9.77;;;9.70;99.90;;;;;;5018825;28;20507;-41
2021/10/23 00:12:50;;;;;;;13.33;10.53;;;9.50;99.90;;;;;;5026325;28;20186;-41
2021/10/23 00:15:17;;;;;;;15.03;11.50;;;9.60;99.90;;;;;;5026513;28;20464;-41
2021/10/23 00:17:42;;;;;;;18.60;12.80;;;9.40;99.90;;;;;;5026631;28;20241;-42
2021/10/23 00:20:08;;;;;;;21.93;13.10;;;9.50;99.90;;;;;;5027100;28;20919;-46
2021/10/23 00:22:34;;;;;;;19.40;13.20;;;9.50;99.90;;;;;;5026952;28;20193;-42
2021/10/23 00:25:00;;;;;;;21.37;14.13;;;9.60;99.90;;;;;;5018620;28;20434;-43
2021/10/23 00:27:27;;;;;;;19.40;13.07;;;9.70;99.90;;;;;;5025030;28;20190;-43
2021/10/23 00:29:53;;;;;;;17.40;13.50;;;9.50;99.90;;;;;;5026903;28;20430;-41
2021/10/23 00:32:19;;;;;;;22.33;14.50;;;9.50;99.90;;;;;;5026566;28;20805;-41
2021/10/23 00:34:45;;;;;;;16.83;13.80;;;9.40;99.90;;;;;;5026049;28;20198;-42
2021/10/23 00:37:10;;;;;;;22.40;15.77;;;9.30;99.90;;;;;;5026640;28;20467;-41
2021/10/23 00:39:36;;;;;;;22.77;15.10;;;9.60;99.90;;;;;;5021986;28;20174;-41
2021/10/23 00:42:03;;;;;;;25.17;15.70;;;9.70;99.90;;;;;;5021812;28;20213;-41
2021/10/23 00:44:35;;;;;;;27.17;15.70;;;9.50;99.90;;;;;;5028848;28;20529;-42
2021/10/23 00:47:19;;;;;;;24.47;16.10;;;9.50;99.90;;;;;;5046415;28;20451;-42
2021/10/23 00:49:47;;;;;;;19.17;14.37;;;9.40;99.90;;;;;;5035134;28;20454;-41
2021/10/23 00:52:13;;;;;;;24.27;15.50;;;9.40;99.90;;;;;;5046747;28;20941;-42
2021/10/23 00:54:39;;;;;;;21.70;14.77;;;9.40;99.90;;;;;;5037207;28;20477;-41
2021/10/23 00:57:06;;;;;;;20.97;15.00;;;9.50;99.90;;;;;;5017970;28;20228;-42
2021/10/23 00:59:32;;;;;;;20.20;16.37;;;9.40;99.90;;;;;;5025759;28;20425;-41
2021/10/23 01:01:58;;;;;;;23.40;14.57;;;9.30;99.90;;;;;;5026273;28;20431;-41
2021/10/23 01:04:25;;;;;;;24.33;15.97;;;9.40;99.90;;;;;;5025857;28;20512;-42
2021/10/23 01:06:51;;;;;;;19.87;15.70;;;9.40;99.90;;;;;;5026159;28;20427;-42
2021/10/23 01:09:18;;;;;;;21.70;15.10;;;9.50;99.90;;;;;;5025716;28;20429;-41
2021/10/23 01:11:44;;;;;;;24.17;16.97;;;9.50;99.90;;;;;;5017650;28;20413;-41
2021/10/23 01:14:21;;;;;;;23.10;16.63;;;9.50;99.90;;;;;;5025058;28;20448;-42
2021/10/23 01:16:49;;;;;;;23.83;16.73;;;9.50;99.90;;;;;;5024956;28;20471;-42
2021/10/23 01:19:15;;;;;;;24.63;17.20;;;9.60;99.90;;;;;;5025811;28;20417;-41
2021/10/23 01:21:44;;;;;;;23.40;17.57;;;9.60;99.90;;;;;;5025669;28;20793;-41
2021/10/23 01:24:10;;;;;;;23.07;17.20;;;9.50;99.90;;;;;;5025393;28;20437;-41
2021/10/23 01:26:37;;;;;;;24.33;16.00;;;9.40;99.90;;;;;;5009391;28;20748;-41
2021/10/23 01:29:08;;;;;;;24.63;16.37;;;9.60;99.90;;;;;;5025704;28;20428;-41
2021/10/23 01:31:33;;;;;;;20.50;14.87;;;9.40;99.90;;;;;;5026068;28;20791;-41
2021/10/23 01:34:16;;;;;;;23.83;15.90;;;9.30;99.90;;;;;;5025067;28;20425;-42
2021/10/23 01:36:51;;;;;;;21.40;16.13;;;9.40;99.90;;;;;;5011778;28;20792;-41
2021/10/23 01:39:18;;;;;;;20.83;15.80;;;9.30;99.90;;;;;;5025712;28;20766;-42
2021/10/23 01:41:44;;;;;;;20.57;16.23;;;9.30;99.90;;;;;;5020148;28;20444;-42
2021/10/23 01:44:11;;;;;;;22.43;18.40;;;9.40;99.90;;;;;;5025093;28;20424;-41
2021/10/23 01:46:37;;;;;;;28.17;18.00;;;9.30;99.90;;;;;;5025357;28;20460;-41
2021/10/23 01:49:05;;;;;;;24.60;17.83;;;9.40;99.90;;;;;;5025381;28;20928;-41
2021/10/23 01:51:32;;;;;;;28.10;18.17;;;9.30;99.90;;;;;;5025341;28;20435;-42
2021/10/23 01:53:58;;;;;;;26.63;18.90;;;9.30;99.90;;;;;;5025084;28;20425;-41
2021/10/23 01:56:24;;;;;;;25.53;17.50;;;9.40;99.90;;;;;;5013630;28;21047;-41
2021/10/23 01:58:50;;;;;;;26.93;19.30;;;9.40;99.90;;;;;;5025167;28;20440;-41
2021/10/23 02:01:15;;;;;;;26.93;19.13;;;9.30;99.90;;;;;;5025553;28;20451;-41
2021/10/23 02:03:41;;;;;;;27.70;19.10;;;9.30;99.90;;;;;;5024503;28;20425;-42
2021/10/23 02:06:10;;;;;;;31.20;20.73;;;9.20;99.90;;;;;;5025415;28;20236;-42
2021/10/23 02:08:36;;;;;;;24.83;17.53;;;9.30;99.90;;;;;;5025382;28;20217;-41
2021/10/23 02:11:03;;;;;;;30.83;19.13;;;9.30;99.90;;;;;;5018072;28;20521;-41
2021/10/23 02:13:29;;;;;;;26.47;18.13;;;9.40;99.90;;;;;;5023022;28;20491;-47
2021/10/23 02:15:54;;;;;;;26.80;18.37;;;9.30;99.90;;;;;;5024563;28;20512;-43
2021/10/23 02:18:20;;;;;;;24.70;18.80;;;9.30;99.90;;;;;;5025066;28;20453;-41
2021/10/23 02:20:46;;;;;;;29.23;20.13;;;9.30;99.90;;;;;;5025213;28;20665;-41
2021/10/23 02:23:12;;;;;;;28.27;18.87;;;9.20;99.90;;;;;;5024736;28;20657;-44
2021/10/23 02:25:37;;;;;;;33.50;20.00;;;9.10;99.90;;;;;;5020301;28;20217;-41
2021/10/23 02:28:03;;;;;;;32.70;19.70;;;9.20;99.90;;;;;;5020905;28;20189;-43
2021/10/23 02:30:29;;;;;;;26.87;18.30;;;9.30;99.90;;;;;;5024454;28;20546;-42
2021/10/23 02:32:54;;;;;;;28.30;19.93;;;9.20;99.90;;;;;;5028073;28;20190;-41
2021/10/23 02:35:20;;;;;;;32.63;21.40;;;9.20;99.90;;;;;;5028560;28;20194;-42
2021/10/23 02:37:46;;;;;;;27.03;18.43;;;9.20;99.90;;;;;;5028893;28;20222;-41
2021/10/23 02:40:12;;;;;;;27.50;19.63;;;9.10;99.90;;;;;;5024684;28;20528;-41
2021/10/23 02:42:38;;;;;;;29.13;19.53;;;9.10;99.90;;;;;;5023308;28;20417;-41
2021/10/23 02:45:05;;;;;;;28.10;18.40;;;9.10;99.90;;;;;;5028482;28;20448;-41
2021/10/23 02:47:31;;;;;;;29.67;20.83;;;9.10;99.90;;;;;;5028759;28;20182;-41
2021/10/23 02:49:57;;;;;;;29.80;19.70;;;8.90;99.90;;;;;;5028154;28;20569;-41
2021/10/23 02:52:22;;;;;;;28.20;19.33;;;9.00;99.90;;;;;;5028763;28;20191;-42
2021/10/23 02:54:48;;;;;;;29.57;19.13;;;9.00;99.90;;;;;;5027835;28;20328;-41
2021/10/23 02:57:14;;;;;;;26.07;17.27;;;9.10;99.90;;;;;;5021086;28;20517;-42
2021/10/23 02:59:41;;;;;;;24.97;17.70;;;9.20;99.90;;;;;;5028099;28;20754;-41
2021/10/23 03:02:07;;;;;;;29.03;19.13;;;9.10;99.90;;;;;;5028435;28;20186;-41
2021/10/23 03:04:33;;;;;;;24.00;18.53;;;8.90;99.90;;;;;;5027991;28;20421;-41
2021/10/23 03:06:58;;;;;;;22.23;18.03;;;9.00;99.90;;;;;;5028240;28;20193;-41
2021/10/23 03:09:24;;;;;;;28.07;18.90;;;9.10;99.90;;;;;;5028589;28;20191;-41
2021/10/23 03:11:50;;;;;;;24.23;16.80;;;9.40;99.90;;;;;;5018423;28;20226;-44
2021/10/23 03:14:16;;;;;;;28.50;19.13;;;9.00;99.90;;;;;;5027892;28;20184;-41
2021/10/23 03:16:41;;;;;;;26.33;18.37;;;9.20;99.90;;;;;;5026942;28;20210;-41
2021/10/23 03:19:07;;;;;;;25.27;17.90;;;9.10;99.90;;;;;;5028493;28;20422;-41
2021/10/23 03:21:33;;;;;;;27.67;19.07;;;9.10;99.90;;;;;;5028079;28;20645;-41
2021/10/23 03:23:58;;;;;;;23.47;18.13;;;9.30;99.90;;;;;;5027852;28;20649;-41
2021/10/23 03:26:24;;;;;;;27.00;18.10;;;9.10;99.90;;;;;;5019060;28;20241;-44
2021/10/23 03:28:50;;;;;;;24.50;18.17;;;9.30;99.90;;;;;;5028008;28;20194;-41
2021/10/23 03:31:15;;;;;;;26.43;18.40;;;9.30;99.90;;;;;;5028948;28;20186;-43
2021/10/23 03:33:41;;;;;;;25.23;17.80;;;9.20;99.90;;;;;;5026870;28;20193;-42
2021/10/23 03:36:07;;;;;;;23.80;18.17;;;9.10;99.90;;;;;;5027902;28;20183;-41
2021/10/23 03:38:32;;;;;;;26.83;18.03;;;8.90;99.90;;;;;;5026873;28;20265;-41
2021/10/23 03:40:58;;;;;;;28.50;19.57;;;9.10;99.90;;;;;;5022747;28;20717;-43
2021/10/23 03:43:24;;;;;;;27.97;18.73;;;9.20;99.90;;;;;;5018623;28;20191;-41
2021/10/23 03:45:50;;;;;;;23.07;19.07;;;8.90;99.90;;;;;;5027665;28;20182;-42
2021/10/23 03:48:16;;;;;;;26.43;19.13;;;8.90;99.90;;;;;;5027341;28;20431;-41
2021/10/23 03:50:41;;;;;;;27.53;19.50;;;9.00;99.90;;;;;;5027771;28;20320;-41
2021/10/23 03:53:07;;;;;;;24.90;18.00;;;9.10;99.90;;;;;;5026917;28;20491;-41
2021/10/23 03:55:33;;;;;;;29.13;20.13;;;8.90;99.90;;;;;;5024793;28;20202;-41
2021/10/23 03:57:59;;;;;;;37.40;21.33;;;8.90;99.90;;;;;;5015955;28;20214;-42
2021/10/23 04:00:24;;;;;;;34.40;21.70;;;9.10;99.90;;;;;;5027586;28;20603;-41
2021/10/23 04:02:50;;;;;;;36.17;22.80;;;9.00;99.90;;;;;;5025215;28;20197;-43
2021/10/23 04:05:15;;;;;;;29.73;22.10;;;9.10;99.90;;;;;;5025962;28;20182;-42
2021/10/23 04:07:41;;;;;;;30.20;21.57;;;9.30;99.90;;;;;;5027216;28;20301;-41
2021/10/23 04:10:07;;;;;;;32.50;22.23;;;9.10;99.90;;;;;;5027328;28;20600;-42
2021/10/23 04:12:33;;;;;;;32.60;21.67;;;9.10;99.90;;;;;;5018720;28;20198;-41
2021/10/23 04:15:00;;;;;;;32.73;23.23;;;9.10;99.90;;;;;;5025328;28;20513;-41
2021/10/23 04:17:26;;;;;;;33.23;22.00;;;9.00;99.90;;;;;;5027247;28;20807;-41
2021/10/23 04:19:52;;;;;;;31.70;20.50;;;9.00;99.90;;;;;;5026877;28;20498;-41
2021/10/23 04:22:18;;;;;;;31.90;20.40;;;9.00;99.90;;;;;;5027212;28;20429;-41
2021/10/23 04:24:44;;;;;;;28.67;21.03;;;9.10;99.90;;;;;;5026253;28;20193;-41
2021/10/23 04:27:09;;;;;;;34.13;22.30;;;9.20;99.90;;;;;;5016812;28;20182;-42
2021/10/23 04:29:35;;;;;;;34.07;22.33;;;9.20;99.90;;;;;;5026336;28;20421;-41
2021/10/23 04:32:01;;;;;;;34.00;22.60;;;9.10;99.90;;;;;;5026535;28;20573;-41
2021/10/23 04:34:26;;;;;;;34.50;21.87;;;8.80;99.90;;;;;;5026278;28;20210;-41
2021/10/23 04:36:52;;;;;;;33.50;21.33;;;8.90;99.90;;;;;;5026813;28;20288;-41
2021/10/23 04:39:18;;;;;;;30.37;19.70;;;8.90;99.90;;;;;;5026392;28;20190;-41
2021/10/23 04:41:44;;;;;;;30.37;20.57;;;9.00;99.90;;;;;;5020785;28;20235;-41
2021/10/23 04:44:10;;;;;;;30.80;20.90;;;8.90;99.90;;;;;;5021968;28;20902;-42
2021/10/23 04:46:36;;;;;;;29.70;20.17;;;8.90;99.90;;;;;;5026225;28;20424;-44
2021/10/23 04:49:02;;;;;;;34.50;20.60;;;9.00;99.90;;;;;;5026861;28;20546;-42
2021/10/23 04:51:27;;;;;;;30.97;19.93;;;9.10;99.90;;;;;;5026744;28;20194;-41
2021/10/23 04:53:53;;;;;;;35.90;20.03;;;8.90;99.90;;;;;;5025396;28;20982;-40
2021/10/23 04:56:19;;;;;;;35.93;20.63;;;8.90;99.90;;;;;;5020876;28;20225;-41
2021/10/23 04:58:45;;;;;;;28.07;19.13;;;9.10;99.90;;;;;;5024852;28;20521;-41
2021/10/23 05:01:12;;;;;;;29.30;20.27;;;8.80;99.90;;;;;;5025874;28;20420;-43
2021/10/23 05:03:37;;;;;;;33.43;20.47;;;8.90;99.90;;;;;;5025786;28;20447;-41
2021/10/23 05:06:03;;;;;;;24.87;18.20;;;9.10;99.90;;;;;;5026222;28;20429;-42
2021/10/23 05:08:29;;;;;;;32.80;20.03;;;8.70;99.90;;;;;;5026362;28;20195;-42
2021/10/23 05:10:55;;;;;;;30.67;20.87;;;8.80;99.90;;;;;;5024254;28;20201;-41
2021/10/23 05:13:21;;;;;;;31.87;20.57;;;8.70;99.90;;;;;;5018459;28;20273;-41
2021/10/23 05:15:47;;;;;;;30.40;19.20;;;8.50;99.90;;;;;;5024489;28;20417;-41
2021/10/23 05:18:13;;;;;;;31.27;20.50;;;8.60;99.90;;;;;;5025827;28;20337;-41
2021/10/23 05:20:38;;;;;;;30.90;21.37;;;8.80;99.90;;;;;;5026235;28;20429;-41
2021/10/23 05:23:04;;;;;;;33.23;19.80;;;8.70;99.90;;;;;;5025534;28;20218;-43
2021/10/23 05:25:30;;;;;;;32.07;21.40;;;8.70;99.90;;;;;;5026016;28;20187;-41
2021/10/23 05:27:56;;;;;;;30.17;20.57;;;8.60;99.90;;;;;;5017464;28;20182;-42
2021/10/23 05:30:21;;;;;;;34.47;21.97;;;8.60;99.90;;;;;;5025708;28;20277;-42
2021/10/23 05:32:47;;;;;;;37.50;22.33;;;8.50;99.90;;;;;;5025413;28;21011;-41
2021/10/23 05:35:13;;;;;;;31.40;20.77;;;8.50;99.90;;;;;;5025862;28;20269;-41
2021/10/23 05:37:39;;;;;;;35.57;22.23;;;8.50;99.90;;;;;;5026029;28;20495;-41
2021/10/23 05:40:06;;;;;;;35.30;22.17;;;8.80;99.90;;;;;;5026014;28;20573;-41
2021/10/23 05:42:31;;;;;;;34.80;22.43;;;8.60;99.90;;;;;;5015313;28;20488;-41
2021/10/23 05:44:57;;;;;;;33.50;21.43;;;8.50;99.90;;;;;;5024803;28;20421;-41
2021/10/23 05:47:23;;;;;;;39.67;22.00;;;8.50;99.90;;;;;;5024406;28;20197;-41
2021/10/23 05:49:48;;;;;;;37.40;21.10;;;8.80;99.90;;;;;;5025879;28;20664;-41
2021/10/23 05:52:14;;;;;;;34.00;20.40;;;8.50;99.90;;;;;;5025730;28;20190;-42
2021/10/23 05:54:40;;;;;;;32.97;20.80;;;8.60;99.90;;;;;;5024922;28;20307;-42
2021/10/23 05:57:10;;;;;;;36.20;21.40;;;8.70;99.90;;;;;;5018029;28;20858;-41
2021/10/23 05:59:40;;;;;;;36.03;21.90;;;8.60;99.90;;;;;;5024868;28;20258;-41
2021/10/23 06:02:26;;;;;;;31.57;19.30;;;8.60;99.90;;;;;;5025803;28;20831;-41
2021/10/23 06:04:57;;;;;;;35.23;21.57;;;8.50;99.90;;;;;;5024660;28;20918;-42
2021/10/23 06:07:24;;;;;;;36.47;22.90;;;8.60;99.90;;;;;;5028305;28;20475;-41
2021/10/23 06:09:50;;;;;;;35.97;21.07;;;8.50;99.90;;;;;;5029086;28;20504;-41
2021/10/23 06:12:17;;;;;;;36.90;23.60;;;8.50;99.90;;;;;;5022553;28;20604;-41
2021/10/23 06:14:43;;;;;;;41.00;23.10;;;8.50;99.90;;;;;;5020249;28;20508;-42
2021/10/23 06:17:08;;;;;;;38.83;22.00;;;8.50;99.90;;;;;;5027831;28;20552;-42
2021/10/23 06:19:35;;;;;;;38.27;22.70;;;8.60;99.90;;;;;;5027976;28;20186;-43
2021/10/23 06:22:02;;;;;;;34.40;22.87;;;8.80;99.90;;;;;;5029334;28;20269;-43
2021/10/23 06:24:28;;;;;;;39.40;23.30;;;8.40;99.90;;;;;;5028278;28;20495;-41
2021/10/23 06:26:54;;;;;;;35.67;22.10;;;8.50;99.90;;;;;;5023807;28;20445;-42
2021/10/23 06:29:19;;;;;;;44.37;23.57;;;8.60;99.90;;;;;;5023590;28;20425;-47
2021/10/23 06:31:45;;;;;;;35.67;22.63;;;8.50;99.90;;;;;;5029167;28;20221;-41
2021/10/23 06:34:11;;;;;;;38.07;24.23;;;8.50;99.90;;;;;;5027401;28;20178;-41
2021/10/23 06:36:36;;;;;;;33.73;22.20;;;8.70;99.90;;;;;;5028486;28;20559;-40
2021/10/23 06:39:02;;;;;;;40.77;24.10;;;8.70;99.90;;;;;;5028198;28;20187;-41
2021/10/23 06:41:30;;;;;;;39.10;23.57;;;8.80;99.90;;;;;;5027849;28;20190;-42
2021/10/23 06:43:56;;;;;;;40.67;22.63;;;8.70;99.90;;;;;;5019678;28;20417;-43
2021/10/23 06:46:23;;;;;;;35.50;22.80;;;8.70;99.90;;;;;;5028484;28;20495;-43
2021/10/23 06:48:52;;;;;;;36.03;21.33;;;8.70;99.90;;;;;;5026023;28;20455;-42
2021/10/23 06:51:18;;;;;;;34.40;22.63;;;8.80;99.90;;;;;;5034498;28;20478;-41
2021/10/23 06:53:44;;;;;;;35.33;20.60;;;8.70;99.90;;;;;;5043308;28;20421;-40
2021/10/23 06:56:10;;;;;;;36.17;22.20;;;8.80;99.90;;;;;;5028322;28;20855;-41
2021/10/23 06:58:35;;;;;;;38.53;21.70;;;8.90;99.90;;;;;;5024900;28;20204;-41
2021/10/23 07:01:04;;;;;;;36.17;22.80;;;8.80;99.90;;;;;;5028098;28;20930;-41
2021/10/23 07:03:30;;;;;;;38.10;21.10;;;8.90;99.90;;;;;;5027811;28;20541;-42
2021/10/23 07:05:55;;;;;;;40.00;22.93;;;8.90;99.90;;;;;;5027075;28;20413;-41
2021/10/23 07:08:21;;;;;;;39.63;22.63;;;8.90;99.90;;;;;;5028615;28;20617;-41
2021/10/23 07:10:47;;;;;;;34.83;20.67;;;9.10;99.90;;;;;;5028682;28;20554;-41
2021/10/23 07:13:12;;;;;;;35.80;20.33;;;9.00;99.90;;;;;;5016032;28;20679;-41
2021/10/23 07:15:39;;;;;;;30.47;20.80;;;9.10;99.90;;;;;;5027077;28;20186;-41
2021/10/23 07:18:05;;;;;;;35.43;20.37;;;9.00;99.90;;;;;;5025315;28;20225;-41
2021/10/23 07:20:32;;;;;;;34.17;20.27;;;9.00;99.90;;;;;;5028260;28;20467;-41
2021/10/23 07:22:58;;;;;;;33.83;20.60;;;9.10;99.90;;;;;;5027444;28;20838;-40
2021/10/23 07:25:25;;;;;;;33.23;20.30;;;9.30;99.90;;;;;;5027930;28;20436;-41
2021/10/23 07:27:51;;;;;;;29.60;19.50;;;9.00;99.90;;;;;;5021409;28;20456;-43
2021/10/23 07:30:17;;;;;;;33.93;20.33;;;9.00;99.90;;;;;;5023363;28;20440;-42
2021/10/23 07:32:43;;;;;;;32.53;19.00;;;9.00;99.90;;;;;;5024933;28;20650;-40
2021/10/23 07:35:10;;;;;;;40.40;19.97;;;9.00;99.90;;;;;;5026849;28;20289;-42
2021/10/23 07:37:35;;;;;;;35.47;19.53;;;9.20;99.90;;;;;;5023600;28;20461;-40
2021/10/23 07:40:02;;;;;;;33.13;18.40;;;9.00;99.90;;;;;;5025858;28;20428;-41
2021/10/23 07:42:28;;;;;;;32.27;20.10;;;9.40;99.90;;;;;;5023232;28;20256;-41
2021/10/23 07:44:54;;;;;;;29.13;18.33;;;9.30;99.90;;;;;;5023682;28;20421;-43
2021/10/23 07:47:21;;;;;;;31.40;20.67;;;9.50;99.90;;;;;;5028238;28;20225;-40
2021/10/23 07:49:47;;;;;;;30.37;19.83;;;9.70;99.90;;;;;;5026279;28;20249;-41
2021/10/23 07:52:12;;;;;;;34.00;19.27;;;10.10;99.90;;;;;;5027163;28;20844;-40
2021/10/23 07:54:38;;;;;;;29.27;17.40;;;10.20;99.90;;;;;;5026855;28;20195;-41
2021/10/23 07:57:04;;;;;;;28.50;18.60;;;10.20;99.90;;;;;;5026017;28;20202;-44
2021/10/23 07:59:31;;;;;;;31.30;19.30;;;10.50;99.90;;;;;;5023348;28;20429;-41
2021/10/23 08:02:01;;;;;;;28.20;17.93;;;10.70;99.90;;;;;;5029092;28;21024;-44
2021/10/23 08:04:28;;;;;;;34.77;19.53;;;10.90;99.90;;;;;;5021368;28;20421;-42
2021/10/23 08:06:54;;;;;;;26.77;18.17;;;10.70;99.90;;;;;;5028929;28;20519;-41
2021/10/23 08:09:20;;;;;;;32.47;20.43;;;10.60;99.90;;;;;;5028920;28;20430;-44
2021/10/23 08:11:46;;;;;;;30.43;19.80;;;10.90;99.90;;;;;;5028763;28;21065;-42
2021/10/23 08:14:15;;;;;;;28.33;19.47;;;11.10;99.90;;;;;;5023434;28;20195;-41
2021/10/23 08:16:41;;;;;;;30.83;18.43;;;11.20;99.90;;;;;;5027387;28;20506;-41
2021/10/23 08:19:07;;;;;;;28.47;18.67;;;11.30;99.90;;;;;;5023672;28;20964;-41
2021/10/23 08:21:32;;;;;;;30.20;18.90;;;11.40;99.90;;;;;;5028569;28;20479;-42
2021/10/23 08:23:59;;;;;;;28.07;17.80;;;11.70;99.90;;;;;;5026822;28;20549;-41
2021/10/23 08:26:25;;;;;;;24.57;17.63;;;11.90;99.90;;;;;;5026937;28;20652;-42
2021/10/23 08:28:51;;;;;;;26.27;18.17;;;12.20;99.90;;;;;;5022756;28;20429;-42
2021/10/23 08:31:17;;;;;;;24.27;16.30;;;12.50;99.90;;;;;;5022077;28;20797;-41
2021/10/23 08:33:43;;;;;;;22.87;15.47;;;12.70;99.90;;;;;;5027659;28;20242;-41
2021/10/23 08:36:08;;;;;;;25.70;16.30;;;12.90;99.90;;;;;;5028298;28;20557;-41
2021/10/23 08:38:34;;;;;;;26.90;17.60;;;13.10;99.90;;;;;;5025718;28;20214;-41
2021/10/23 08:41:01;;;;;;;25.53;16.47;;;13.20;99.90;;;;;;5027326;28;20212;-44
2021/10/23 08:43:27;;;;;;;24.43;15.70;;;13.40;99.90;;;;;;5019679;28;20183;-41
2021/10/23 08:45:58;;;;;;;27.33;16.17;;;13.40;99.90;;;;;;5027996;28;21105;-43
2021/10/23 08:48:25;;;;;;;23.30;14.50;;;13.50;99.90;;;;;;5028129;28;20512;-41
2021/10/23 08:50:51;;;;;;;26.47;16.60;;;13.60;99.90;;;;;;5028176;28;21000;-40
2021/10/23 08:53:19;;;;;;;23.83;15.80;;;13.70;99.90;;;;;;5027720;28;20490;-43
2021/10/23 08:55:44;;;;;;;22.67;14.90;;;13.90;99.90;;;;;;5027989;28;20437;-40
2021/10/23 08:58:11;;;;;;;20.83;14.03;;;14.00;99.90;;;;;;5020395;28;20485;-41
2021/10/23 09:00:37;;;;;;;31.13;16.37;;;14.10;99.90;;;;;;5026155;28;20590;-40
2021/10/23 09:03:03;;;;;;;21.40;14.93;;;14.30;99.90;;;;;;5027047;28;20470;-39
2021/10/23 09:05:33;;;;;;;27.93;13.70;;;14.20;99.90;;;;;;5027988;28;20417;-39
2021/10/23 09:07:59;;;;;;;38.17;15.27;;;14.30;99.90;;;;;;5027975;28;20205;-38
2021/10/23 09:10:35;;;;;;;18.03;13.23;;;14.40;99.90;;;;;;5027990;28;20437;-38
2021/10/23 09:13:07;;;;;;;22.70;12.77;;;14.60;99.90;;;;;;5021273;28;20465;-38
2021/10/23 09:15:42;;;;;;;59.40;15.20;;;14.80;99.90;;;;;;5019079;28;20425;-37
2021/10/23 09:18:09;;;;;;;19.00;12.40;;;14.90;99.90;;;;;;5027447;28;20476;-37
2021/10/23 09:20:40;;;;;;;21.23;12.90;;;14.90;99.90;;;;;;5026759;28;20417;-38
2021/10/23 09:23:17;;;;;;;17.57;11.20;;;15.00;99.90;;;;;;5026890;28;20874;-38
2021/10/23 09:25:44;;;;;;;15.83;10.43;;;15.00;99.90;;;;;;5027592;28;20507;-38
2021/10/23 09:28:12;;;;;;;16.10;10.47;;;14.90;99.90;;;;;;5022508;28;20443;-38
2021/10/23 09:30:50;;;;;;;23.00;12.50;;;14.80;99.90;;;;;;5018540;28;20425;-38
2021/10/23 09:33:22;;;;;;;29.23;11.83;;;14.90;99.90;;;;;;5026713;28;20853;-38
2021/10/23 09:35:49;;;;;;;15.53;10.67;;;14.90;99.90;;;;;;5027785;28;20787;-38
2021/10/23 09:38:23;;;;;;;20.47;10.53;;;14.80;99.90;;;;;;5027120;28;20973;-38
2021/10/23 09:40:53;;;;;;;15.27;9.70;;;15.00;99.90;;;;;;5027609;28;20420;-38
2021/10/23 09:43:20;;;;;;;13.93;8.23;;;15.20;99.90;;;;;;5020689;28;20492;-38
2021/10/23 09:45:58;;;;;;;10.37;7.43;;;15.30;99.90;;;;;;5024054;28;20861;-38
2021/10/23 09:48:42;;;;;;;14.30;8.43;;;15.30;99.90;;;;;;5027342;28;20453;-38
2021/10/23 09:51:28;;;;;;;17.07;9.27;;;15.20;99.90;;;;;;5027604;28;20417;-38
2021/10/23 09:53:56;;;;;;;16.23;10.60;;;15.10;99.90;;;;;;5026737;28;20704;-38
2021/10/23 09:56:22;;;;;;;15.83;8.70;;;15.20;99.90;;;;;;5027295;28;20441;-38
2021/10/23 09:58:53;;;;;;;18.30;9.07;;;15.40;99.90;;;;;;5020550;28;20432;-38
2021/10/23 10:01:25;;;;;;;15.50;10.07;;;15.50;99.90;;;;;;5024526;28;20793;-38
2021/10/23 10:03:53;;;;;;;19.43;10.30;;;15.50;99.90;;;;;;5026637;28;20936;-38
2021/10/23 10:06:20;;;;;;;19.13;11.17;;;15.40;99.90;;;;;;5027436;28;20424;-38
2021/10/23 10:08:50;;;;;;;15.40;9.67;;;15.50;99.90;;;;;;5027372;28;20444;-38
2021/10/23 10:11:17;;;;;;;18.43;9.47;;;15.40;99.90;;;;;;5027154;28;20492;-38
2021/10/23 10:13:43;;;;;;;23.53;10.80;;;15.20;99.90;;;;;;5018026;28;20766;-38
2021/10/23 10:16:11;;;;;;;16.53;9.67;;;14.70;99.90;;;;;;5021735;28;20417;-38
2021/10/23 10:18:40;;;;;;;14.00;8.40;;;14.60;99.90;;;;;;5026933;28;20622;-38
2021/10/23 10:21:11;;;;;;;16.43;9.83;;;14.40;99.90;;;;;;5027042;28;20420;-38
2021/10/23 10:23:42;;;;;;;18.13;10.00;;;14.10;99.90;;;;;;5026559;28;20425;-38
2021/10/23 10:26:31;;;;;;;13.13;6.50;;;14.10;99.90;;;;;;5026794;28;20425;-38
2021/10/23 10:29:10;;;;;;;23.00;10.73;;;14.20;99.90;;;;;;5019375;28;20445;-38
2021/10/23 10:31:50;;;;;;;18.10;8.80;;;14.00;99.90;;;;;;5026510;28;20900;-38
2021/10/23 10:34:44;;;;;;;15.30;7.90;;;13.80;99.90;;;;;;5026411;28;20429;-38
2021/10/23 10:40:30;;;;;;;15.07;9.47;;;13.70;99.90;;;;;;5026342;28;20421;-38
2021/10/23 10:43:05;;;;;;;24.50;11.83;;;13.80;99.90;;;;;;5016791;28;20520;-38
2021/10/23 10:48:17;;;;;;;16.23;8.73;;;13.70;99.90;;;;;;5023332;28;20440;-38
2021/10/23 10:51:12;;;;;;;11.80;7.50;;;13.80;99.90;;;;;;5026734;28;20520;-38
2021/10/23 10:53:39;;;;;;;14.67;7.80;;;13.70;99.90;;;;;;5029380;28;20772;-38
2021/10/23 10:56:06;;;;;;;11.77;7.70;;;13.50;99.90;;;;;;5030605;28;20448;-38
2021/10/23 10:58:56;;;;;;;10.87;7.37;;;13.50;99.90;;;;;;5025779;28;20466;-39
2021/10/23 11:01:26;;;;;;;16.37;8.40;;;13.50;99.90;;;;;;5028685;28;20833;-39
2021/10/23 11:03:51;;;;;;;15.90;8.60;;;13.40;99.90;;;;;;5029375;28;20769;-38
2021/10/23 11:06:35;;;;;;;15.07;7.93;;;13.50;99.90;;;;;;5030377;28;20424;-38
2021/10/23 11:09:13;;;;;;;12.20;7.83;;;13.50;99.90;;;;;;5030163;28;20198;-38
2021/10/23 11:11:44;;;;;;;15.43;7.97;;;13.50;99.90;;;;;;5030323;28;20550;-38
2021/10/23 11:16:56;;;;;;;11.03;6.33;;;13.50;99.90;;;;;;5025610;28;20456;-38
2021/10/23 11:19:27;;;;;;;11.43;6.60;;;13.40;99.90;;;;;;5029944;28;20467;-38
2021/10/23 11:21:55;;;;;;;12.60;6.20;;;13.30;99.90;;;;;;5030021;28;20428;-38
2021/10/23 11:24:30;;;;;;;18.87;8.27;;;13.20;99.90;;;;;;5029347;28;20417;-38
2021/10/23 11:26:57;;;;;;;11.27;6.33;;;13.20;99.90;;;;;;5029743;28;20464;-38
2021/10/23 11:29:27;;;;;;;11.90;7.37;;;13.40;99.90;;;;;;5021593;28;20865;-38
2021/10/23 11:32:00;;;;;;;13.07;6.57;;;13.50;99.90;;;;;;5022406;28;21069;-38
2021/10/23 11:34:31;;;;;;;10.03;4.87;;;13.70;99.90;;;;;;5027755;28;20421;-38
2021/10/23 11:36:59;;;;;;;7.17;4.23;;;14.00;99.90;;;;;;5029534;28;20449;-38
2021/10/23 11:39:25;;;;;;;6.53;3.83;;;14.20;99.90;;;;;;5029709;28;20413;-38
2021/10/23 11:41:51;;;;;;;5.80;3.73;;;14.30;99.90;;;;;;5029861;28;20427;-38
2021/10/23 11:44:27;;;;;;;5.30;3.10;;;14.40;99.90;;;;;;5023386;28;21130;-38
2021/10/23 11:46:59;;;;;;;31.40;12.53;;;14.60;99.90;;;;;;5023475;28;20213;-38
2021/10/23 11:49:32;;;;;;;11.50;5.37;;;14.90;99.90;;;;;;5029189;28;20504;-38
2021/10/23 11:51:57;;;;;;;8.20;2.83;;;15.00;99.90;;;;;;5029553;28;20444;-38
2021/10/23 11:54:23;;;;;;;6.30;3.10;;;15.10;99.90;;;;;;5028749;28;20429;-38
2021/10/23 11:56:50;;;;;;;7.00;4.03;;;15.10;99.90;;;;;;5029427;28;20220;-38
2021/10/23 11:59:16;;;;;;;4.23;2.30;;;15.20;99.90;;;;;;5022370;28;20449;-38
2021/10/23 12:01:42;;;;;;;6.03;2.70;;;15.20;99.90;;;;;;5023974;28;20427;-38
2021/10/23 12:04:08;;;;;;;7.17;2.20;;;15.00;99.90;;;;;;5026845;28;20492;-38
2021/10/23 12:06:39;;;;;;;5.53;1.90;;;15.10;99.90;;;;;;5028969;28;20423;-38
2021/10/23 12:09:23;;;;;;;4.50;2.17;;;15.20;99.90;;;;;;5029167;28;20191;-39
2021/10/23 12:12:08;;;;;;;3.77;1.50;;;15.20;99.90;;;;;;5028564;28;20433;-38
2021/10/23 12:14:34;;;;;;;2.20;1.53;;;15.00;99.90;;;;;;5020582;28;20516;-38
2021/10/23 12:17:00;;;;;;;4.03;1.57;;;14.90;99.90;;;;;;5026561;28;20551;-39
2021/10/23 12:19:33;;;;;;;4.67;1.77;;;14.80;99.90;;;;;;5028793;28;20190;-38
2021/10/23 12:22:04;;;;;;;5.00;1.60;;;14.80;99.90;;;;;;5028745;28;20452;-38
2021/10/23 12:24:32;;;;;;;4.77;1.90;;;14.80;99.90;;;;;;5028127;28;20429;-38
2021/10/23 12:27:03;;;;;;;8.33;2.17;;;14.90;99.90;;;;;;5035893;28;20428;-38
2021/10/23 12:29:34;;;;;;;4.83;1.90;;;15.00;99.90;;;;;;5036803;28;21316;-38
2021/10/23 12:32:05;;;;;;;4.00;1.93;;;15.00;99.90;;;;;;5021111;28;20437;-38
2021/10/23 12:34:49;;;;;;;3.80;2.33;;;15.00;99.90;;;;;;5026434;28;20424;-38
2021/10/23 12:37:40;;;;;;;7.90;2.10;;;15.00;99.90;;;;;;5024251;28;20459;-39
2021/10/23 12:40:09;;;;;;;7.20;2.37;;;15.10;99.90;;;;;;5018432;28;20445;-39
2021/10/23 12:42:58;;;;;;;3.47;2.33;;;15.10;99.90;;;;;;5026068;28;20676;-38
2021/10/23 12:45:30;;;;;;;4.53;1.90;;;15.00;99.30;;;;;;5012550;28;20496;-38
2021/10/23 12:47:58;;;;;;;7.83;2.87;;;15.10;99.70;;;;;;5025148;28;20421;-39